Time;durP1;ratioP1;P1;durP2;ratioP2;P2;SDS_P1;SDS_P2;PMS_P1;PMS_P2;Temp;Humidity;BMP_temperature;BMP_pressure;BME280_temperature;BME280_humidity;BME280_pressure;Samples;Min_cycle;Max_cycle;Signal;HPM_P1;HPM_P2
2021/12/05 00:19:08;;;;;;;;;;;5.30;99.90;;;;;;10275613;28;84195;-54
2021/12/05 00:24:11;;;;;;;;;;;5.40;99.90;;;;;;10272106;28;85032;-56
2021/12/05 00:29:26;;;;;;;;;;;5.40;99.90;;;;;;10267168;28;84362;-53
2021/12/05 00:50:57;;;;;;;;;;;5.30;99.90;;;;;;10290011;28;86972;-52
2021/12/05 00:56:02;;;;;;;;;;;5.30;99.90;;;;;;10289369;28;85784;-55
2021/12/05 01:16:48;;;;;;;;;;;5.20;99.90;;;;;;10287534;28;85947;-55
2021/12/05 01:21:52;;;;;;;;;;;5.20;99.90;;;;;;10287610;28;85604;-56
2021/12/05 01:37:25;;;;;;;;;;;5.20;99.90;;;;;;10288574;28;84076;-52
2021/12/05 01:48:36;;;;;;;;;;;5.10;99.90;;;;;;10287380;28;86754;-51
2021/12/05 01:59:11;;;;;;;;;;;5.10;99.90;;;;;;10296067;28;84695;-50
2021/12/05 02:15:23;;;;;;;;;;;5.00;99.90;;;;;;10289604;28;85831;-54
2021/12/05 02:41:17;;;;;;;;;;;4.80;99.90;;;;;;10296282;28;86049;-51
2021/12/05 02:46:21;;;;;;;;;;;4.80;99.90;;;;;;10293675;28;85939;-50
2021/12/05 02:51:24;;;;;;;;;;;4.80;99.90;;;;;;10294356;28;84749;-52
2021/12/05 02:56:26;;;;;;;;;;;4.80;99.90;;;;;;10293502;28;86730;-55
2021/12/05 03:01:34;;;;;;;;;;;4.80;99.90;;;;;;10292952;28;86862;-52
2021/12/05 03:06:38;;;;;;;;;;;4.80;99.90;;;;;;10291942;28;86835;-51
2021/12/05 03:11:39;;;;;;;;;;;4.80;99.90;;;;;;10309172;28;86083;-50
2021/12/05 03:16:41;;;;;;;;;;;4.70;99.90;;;;;;10291146;28;85510;-50
2021/12/05 03:21:46;;;;;;;;;;;4.60;99.90;;;;;;10292048;28;85872;-53
2021/12/05 03:26:49;;;;;;;;;;;4.60;99.90;;;;;;10291596;28;86818;-52
2021/12/05 03:31:51;;;;;;;;;;;4.50;99.90;;;;;;10291478;28;88085;-55
2021/12/05 03:36:56;;;;;;;;;;;4.50;99.90;;;;;;10290087;28;85672;-55
2021/12/05 03:41:59;;;;;;;;;;;4.50;99.90;;;;;;10290935;28;86923;-54
2021/12/05 03:47:01;;;;;;;;;;;4.50;99.90;;;;;;10306395;28;85932;-51
2021/12/05 03:52:08;;;;;;;;;;;4.40;99.90;;;;;;10290572;28;86512;-51
2021/12/05 03:57:09;;;;;;;;;;;4.40;99.90;;;;;;10289580;28;86688;-56
2021/12/05 04:02:10;;;;;;;;;;;4.50;99.90;;;;;;10292340;28;83978;-51
2021/12/05 04:07:15;;;;;;;;;;;4.50;99.90;;;;;;10290018;28;86672;-52
2021/12/05 04:12:16;;;;;;;;;;;4.60;99.90;;;;;;10290073;28;85778;-53
2021/12/05 04:17:19;;;;;;;;;;;4.60;99.90;;;;;;10340314;22;86640;-46
2021/12/05 04:22:20;;;;;;;;;;;4.70;99.90;;;;;;10327237;28;85797;-46
2021/12/05 04:27:20;;;;;;;;;;;4.70;99.90;;;;;;10327844;28;85952;-50
2021/12/05 04:32:22;;;;;;;;;;;4.70;99.90;;;;;;10329140;28;84004;-48
2021/12/05 04:37:23;;;;;;;;;;;4.70;99.90;;;;;;10312658;28;85877;-45
2021/12/05 04:42:24;;;;;;;;;;;4.70;99.90;;;;;;10312446;28;85680;-46
2021/12/05 04:47:25;;;;;;;;;;;4.70;99.90;;;;;;10327790;28;84373;-48
2021/12/05 04:52:27;;;;;;;;;;;4.80;99.90;;;;;;10326914;28;86628;-46
2021/12/05 04:57:28;;;;;;;;;;;4.80;99.90;;;;;;10326759;28;86793;-48
2021/12/05 05:02:28;;;;;;;;;;;4.70;99.90;;;;;;10327549;28;85881;-47
2021/12/05 05:07:29;;;;;;;;;;;4.70;99.90;;;;;;10326765;28;84192;-47
2021/12/05 05:12:29;;;;;;;;;;;4.70;99.90;;;;;;10326003;28;87154;-46
2021/12/05 05:17:30;;;;;;;;;;;4.70;99.90;;;;;;10326590;28;84875;-46
2021/12/05 05:22:43;;;;;;;;;;;4.70;99.90;;;;;;10327831;28;84822;-47
2021/12/05 05:28:11;;;;;;;;;;;4.70;99.90;;;;;;10327409;28;84211;-49
2021/12/05 05:39:30;;;;;;;;;;;4.70;99.90;;;;;;10327284;28;84753;-46
2021/12/05 05:45:12;;;;;;;;;;;4.70;99.90;;;;;;10327392;28;83979;-48
2021/12/05 05:49:50;;;;;;;;;;;4.70;99.90;;;;;;10327579;28;86043;-46
2021/12/05 05:54:52;;;;;;;;;;;4.80;99.90;;;;;;10325378;28;84795;-47
2021/12/05 06:00:11;;;;;;;;;;;4.80;99.90;;;;;;10331014;28;84896;-50
2021/12/05 06:05:15;;;;;;;;;;;4.80;99.90;;;;;;10337101;28;84627;-45
2021/12/05 06:10:19;;;;;;;;;;;4.80;99.90;;;;;;10348104;28;84431;-46
2021/12/05 06:15:20;;;;;;;;;;;4.90;99.90;;;;;;10349807;28;85987;-46
2021/12/05 06:20:24;;;;;;;;;;;5.00;99.90;;;;;;10345637;28;84125;-47
2021/12/05 06:25:26;;;;;;;;;;;5.10;99.90;;;;;;10342008;28;84205;-50
2021/12/05 06:51:13;;;;;;;;;;;5.30;99.90;;;;;;10357570;28;84907;-51
2021/12/05 06:56:14;;;;;;;;;;;5.30;99.90;;;;;;10352072;28;84347;-47
2021/12/05 07:01:15;;;;;;;;;;;5.40;99.90;;;;;;10349097;28;84856;-50
2021/12/05 07:06:27;;;;;;;;;;;5.40;99.90;;;;;;10348375;28;84826;-48
2021/12/05 07:11:36;;;;;;;;;;;5.40;99.90;;;;;;10331053;28;85073;-45
2021/12/05 07:16:41;;;;;;;;;;;5.50;99.90;;;;;;10329613;28;84088;-47
2021/12/05 07:40:20;;;;;;;;;;;5.60;99.90;;;;;;10328135;28;84250;-46
2021/12/05 07:42:51;;;;;;;;;;;5.60;99.90;;;;;;10320982;28;85298;-46
2021/12/05 07:47:53;;;;;;;;;;;5.50;99.90;;;;;;10330950;28;85225;-46
2021/12/05 07:52:59;;;;;;;;;;;5.50;99.90;;;;;;10323086;28;84424;-51
2021/12/05 08:18:59;;;;;;;;;;;5.50;99.90;;;;;;10322074;28;85467;-47
2021/12/05 08:24:01;;;;;;;;;;;5.50;99.90;;;;;;10318793;28;85076;-46
2021/12/05 08:29:16;;;;;;;;;;;5.70;99.90;;;;;;10316315;28;84894;-46
2021/12/05 08:34:39;;;;;;;;;;;5.70;99.90;;;;;;10321875;28;84387;-43
2021/12/05 10:15:12;;;;;;;;;;;6.90;99.90;;;;;;10327862;28;84067;-48
2021/12/05 10:26:04;;;;;;;;;;;6.70;99.90;;;;;;10332629;28;84872;-47
2021/12/05 10:46:35;;;;;;;;;;;6.70;99.90;;;;;;10332238;28;84991;-51
2021/12/05 10:51:37;;;;;;;;;;;6.50;99.90;;;;;;10332256;28;84919;-52
2021/12/05 10:56:39;;;;;;;;;;;6.60;99.90;;;;;;10332349;28;84125;-52
2021/12/05 11:01:41;;;;;;;;;;;6.60;99.90;;;;;;10333267;28;84070;-54
2021/12/05 11:06:50;;;;;;;;;;;6.50;99.90;;;;;;10330417;28;84808;-54
2021/12/05 11:11:52;;;;;;;;;;;6.50;99.90;;;;;;10317221;28;84870;-56
2021/12/05 11:16:57;;;;;;;;;;;6.50;99.90;;;;;;10330405;28;86087;-54
2021/12/05 11:22:04;;;;;;;;;;;6.40;99.90;;;;;;10330840;28;84474;-52
2021/12/05 11:27:12;;;;;;;;;;;6.50;99.90;;;;;;10324180;28;84328;-47
2021/12/05 11:32:23;;;;;;;;;;;6.50;99.90;;;;;;10330830;28;84990;-50
2021/12/05 11:37:23;;;;;;;;;;;6.60;99.90;;;;;;10329868;28;84131;-48
2021/12/05 11:42:24;;;;;;;;;;;6.60;99.90;;;;;;10330739;28;84747;-50
2021/12/05 11:47:25;;;;;;;;;;;6.80;99.90;;;;;;10328403;28;85557;-49
2021/12/05 11:52:25;;;;;;;;;;;6.90;99.90;;;;;;10328827;28;83842;-51
2021/12/05 11:57:27;;;;;;;;;;;6.90;99.90;;;;;;10326163;28;85169;-47
2021/12/05 12:02:32;;;;;;;;;;;6.80;99.90;;;;;;10326893;28;84837;-49
2021/12/05 12:07:32;;;;;;;;;;;6.60;99.90;;;;;;10318366;28;85955;-49
2021/12/05 12:12:33;;;;;;;;;;;6.60;99.90;;;;;;10326217;28;84886;-48
2021/12/05 12:17:34;;;;;;;;;;;6.60;99.90;;;;;;10324499;28;84205;-48
2021/12/05 12:22:34;;;;;;;;;;;6.60;99.90;;;;;;10327569;28;85311;-49
2021/12/05 12:27:35;;;;;;;;;;;6.40;99.90;;;;;;10330788;28;84974;-51
2021/12/05 12:32:43;;;;;;;;;;;6.50;99.90;;;;;;10329927;28;84743;-47
2021/12/05 12:37:53;;;;;;;;;;;6.40;99.90;;;;;;10328792;28;84373;-47
2021/12/05 12:42:54;;;;;;;;;;;6.40;99.90;;;;;;10327756;28;84961;-51
2021/12/05 12:47:58;;;;;;;;;;;6.50;99.90;;;;;;10326287;28;85543;-50
2021/12/05 12:53:01;;;;;;;;;;;6.60;99.90;;;;;;10323248;28;86007;-47
2021/12/05 12:58:04;;;;;;;;;;;6.60;99.90;;;;;;10322965;28;84479;-45
2021/12/05 13:03:27;;;;;;;;;;;6.70;99.90;;;;;;10324320;28;84587;-55
2021/12/05 13:14:05;;;;;;;;;;;6.60;99.90;;;;;;10326435;28;84770;-48
2021/12/05 13:19:08;;;;;;;;;;;6.70;99.90;;;;;;10287468;28;84133;-54
2021/12/05 13:24:14;;;;;;;;;;;6.80;99.90;;;;;;10287078;28;84971;-54
2021/12/05 13:29:17;;;;;;;;;;;6.80;99.90;;;;;;10287563;28;84031;-49
2021/12/05 13:34:36;;;;;;;;;;;6.90;99.90;;;;;;10305713;28;84914;-54
2021/12/05 13:39:47;;;;;;;;;;;7.00;99.90;;;;;;10328399;28;84782;-55
2021/12/05 13:45:00;;;;;;;;;;;7.10;99.90;;;;;;10326996;28;85064;-57
2021/12/05 13:50:25;;;;;;;;;;;7.10;99.90;;;;;;10326173;28;84900;-57
2021/12/05 13:55:35;;;;;;;;;;;7.10;99.90;;;;;;10338120;28;85241;-54
2021/12/05 14:00:39;;;;;;;;;;;7.20;99.90;;;;;;10331905;28;86951;-53
2021/12/05 14:05:46;;;;;;;;;;;7.10;99.90;;;;;;10331606;28;84821;-59
2021/12/05 14:10:48;;;;;;;;;;;7.10;99.90;;;;;;10334977;28;84102;-58
2021/12/05 14:15:57;;;;;;;;;;;7.10;99.90;;;;;;10330021;28;86145;-59
2021/12/05 14:21:09;;;;;;;;;;;7.10;99.90;;;;;;10332887;28;84871;-54
2021/12/05 14:26:14;;;;;;;;;;;7.10;99.90;;;;;;10330492;28;84829;-54
2021/12/05 14:31:22;;;;;;;;;;;7.10;99.90;;;;;;10331920;28;84823;-56
2021/12/05 14:36:27;;;;;;;;;;;7.00;99.90;;;;;;10338101;28;86975;-55
2021/12/05 14:41:32;;;;;;;;;;;7.00;99.90;;;;;;10331931;28;86140;-55
2021/12/05 14:46:32;;;;;;;;;;;7.10;99.90;;;;;;10336006;28;84969;-54
2021/12/05 14:51:34;;;;;;;;;;;7.00;99.90;;;;;;10334611;28;84223;-55
2021/12/05 14:56:36;;;;;;;;;;;6.80;99.90;;;;;;10337202;28;84919;-54
2021/12/05 15:01:37;;;;;;;;;;;6.70;99.90;;;;;;10331215;28;85016;-55
2021/12/05 15:06:42;;;;;;;;;;;6.70;99.90;;;;;;10328738;28;84999;-59
2021/12/05 15:11:54;;;;;;;;;;;6.60;99.90;;;;;;10331012;28;84879;-52
2021/12/05 15:16:57;;;;;;;;;;;6.60;99.90;;;;;;10330998;28;84162;-50
2021/12/05 15:21:58;;;;;;;;;;;6.70;99.90;;;;;;10331639;28;85153;-54
2021/12/05 15:26:59;;;;;;;;;;;6.70;99.90;;;;;;10331400;28;84814;-52
2021/12/05 15:32:00;;;;;;;;;;;6.60;99.90;;;;;;10331929;28;84917;-51
2021/12/05 15:37:06;;;;;;;;;;;6.60;99.90;;;;;;10326936;28;85317;-47
2021/12/05 15:42:14;;;;;;;;;;;6.60;99.90;;;;;;10327101;28;84985;-46
2021/12/05 15:47:15;;;;;;;;;;;6.50;99.90;;;;;;10324375;28;84737;-52
2021/12/05 15:52:16;;;;;;;;;;;6.60;99.90;;;;;;10324715;28;86043;-49
2021/12/05 15:57:24;;;;;;;;;;;6.60;99.90;;;;;;10324426;28;84912;-49
2021/12/05 16:02:24;;;;;;;;;;;6.60;99.90;;;;;;10328264;28;84402;-48
2021/12/05 16:07:27;;;;;;;;;;;6.70;99.90;;;;;;10326398;28;87012;-52
2021/12/05 16:12:27;;;;;;;;;;;6.60;99.90;;;;;;10328175;28;84892;-55
2021/12/05 16:17:29;;;;;;;;;;;6.60;99.90;;;;;;10382053;22;84903;-56
2021/12/05 16:22:29;;;;;;;;;;;6.70;99.90;;;;;;10371839;28;84819;-54
2021/12/05 16:27:30;;;;;;;;;;;6.60;99.90;;;;;;10365581;28;84926;-59
2021/12/05 16:32:37;;;;;;;;;;;6.60;99.90;;;;;;10322163;28;85738;-57
2021/12/05 16:37:39;;;;;;;;;;;6.60;99.90;;;;;;10351344;28;84742;-52
2021/12/05 16:42:40;;;;;;;;;;;6.50;99.90;;;;;;10344248;28;84083;-56
2021/12/05 16:47:43;;;;;;;;;;;6.40;99.90;;;;;;10345347;28;84807;-51
2021/12/05 16:52:47;;;;;;;;;;;6.30;99.90;;;;;;10335005;28;84274;-54
2021/12/05 16:58:06;;;;;;;;;;;6.20;99.90;;;;;;10333630;28;84136;-50
2021/12/05 17:03:07;;;;;;;;;;;6.10;99.90;;;;;;10336747;28;84062;-50
2021/12/05 17:08:14;;;;;;;;;;;6.00;99.90;;;;;;10329763;28;84814;-51
2021/12/05 17:13:18;;;;;;;;;;;6.00;99.90;;;;;;10340286;28;85059;-55
2021/12/05 17:18:20;;;;;;;;;;;6.00;99.90;;;;;;10322898;28;84913;-50
2021/12/05 17:23:26;;;;;;;;;;;6.00;99.90;;;;;;10343825;28;84947;-54
2021/12/05 17:28:36;;;;;;;;;;;6.00;99.90;;;;;;10342119;28;85791;-57
2021/12/05 17:33:41;;;;;;;;;;;6.10;99.90;;;;;;10320655;28;85243;-58
2021/12/05 17:38:41;;;;;;;;;;;6.00;99.90;;;;;;10322541;28;84355;-51
2021/12/05 17:43:42;;;;;;;;;;;6.00;99.90;;;;;;10329413;28;86000;-50
2021/12/05 17:48:43;;;;;;;;;;;6.00;99.90;;;;;;10356083;28;84945;-49
2021/12/05 17:53:44;;;;;;;;;;;6.00;99.90;;;;;;10356481;28;85626;-53
2021/12/05 18:03:45;;;;;;;;;;;6.00;99.90;;;;;;10342398;28;85977;-53
2021/12/05 18:08:47;;;;;;;;;;;5.90;99.90;;;;;;10319624;28;84364;-49
2021/12/05 18:13:52;;;;;;;;;;;5.90;99.90;;;;;;10333636;28;85472;-53
2021/12/05 18:18:56;;;;;;;;;;;5.90;99.90;;;;;;10336389;28;84703;-55
2021/12/05 18:23:57;;;;;;;;;;;5.90;99.90;;;;;;10354469;28;86156;-56
2021/12/05 18:28:57;;;;;;;;;;;5.90;99.90;;;;;;10331774;28;84098;-58
2021/12/05 18:34:08;;;;;;;;;;;5.90;99.90;;;;;;10330140;28;84179;-55
2021/12/05 18:39:11;;;;;;;;;;;5.90;99.90;;;;;;10329536;28;84995;-54
2021/12/05 18:44:18;;;;;;;;;;;5.90;99.90;;;;;;10329725;28;86979;-51
2021/12/05 18:49:19;;;;;;;;;;;5.80;99.90;;;;;;10332521;28;84544;-51
2021/12/05 18:54:20;;;;;;;;;;;6.00;99.90;;;;;;10334118;28;84829;-55
2021/12/05 18:59:22;;;;;;;;;;;6.00;99.90;;;;;;10333559;28;85995;-55
2021/12/05 19:04:33;;;;;;;;;;;6.00;99.90;;;;;;10335066;28;84892;-57
2021/12/05 19:14:41;;;;;;;;;;;6.00;99.90;;;;;;10333441;28;86558;-54
2021/12/05 19:19:43;;;;;;;;;;;6.00;99.90;;;;;;10333975;28;84870;-58
2021/12/05 19:24:45;;;;;;;;;;;5.90;99.90;;;;;;10333308;28;84096;-57
2021/12/05 19:29:47;;;;;;;;;;;5.90;99.90;;;;;;10324631;28;84227;-48
2021/12/05 19:34:47;;;;;;;;;;;5.90;99.90;;;;;;10328428;28;84710;-48
2021/12/05 19:39:48;;;;;;;;;;;6.00;99.90;;;;;;10346342;28;84908;-50
2021/12/05 19:44:50;;;;;;;;;;;6.00;99.90;;;;;;10323673;28;84827;-48
2021/12/05 19:49:51;;;;;;;;;;;6.10;99.90;;;;;;10317598;28;84238;-53
2021/12/05 19:54:52;;;;;;;;;;;6.10;99.90;;;;;;10334116;28;85724;-49
2021/12/05 19:59:52;;;;;;;;;;;6.00;99.90;;;;;;10338397;28;84054;-50
2021/12/05 20:04:53;;;;;;;;;;;6.00;99.90;;;;;;10355182;28;84959;-52
2021/12/05 20:09:54;;;;;;;;;;;5.90;99.90;;;;;;10371072;28;85196;-50
2021/12/05 20:14:55;;;;;;;;;;;6.00;99.90;;;;;;10334440;28;85369;-54
2021/12/05 20:19:56;;;;;;;;;;;6.00;99.90;;;;;;10331730;28;85140;-55
2021/12/05 20:24:58;;;;;;;;;;;6.00;99.90;;;;;;10336867;28;84730;-53
2021/12/05 20:29:59;;;;;;;;;;;6.00;99.90;;;;;;10328863;28;84894;-49
2021/12/05 20:34:59;;;;;;;;;;;6.00;99.90;;;;;;10327244;28;85039;-50
2021/12/05 20:40:00;;;;;;;;;;;6.00;99.90;;;;;;10328532;28;84088;-55
2021/12/05 20:45:01;;;;;;;;;;;5.90;99.90;;;;;;10329681;28;84843;-51
2021/12/05 20:50:05;;;;;;;;;;;6.00;99.90;;;;;;10329723;28;84877;-49
2021/12/05 20:55:07;;;;;;;;;;;5.90;99.90;;;;;;10328638;28;84275;-52
2021/12/05 21:00:11;;;;;;;;;;;6.00;99.90;;;;;;10328075;28;85097;-54
2021/12/05 21:05:13;;;;;;;;;;;5.80;99.90;;;;;;10327346;28;84033;-51
2021/12/05 21:10:14;;;;;;;;;;;5.90;99.90;;;;;;10336079;28;85925;-55
2021/12/05 21:15:15;;;;;;;;;;;5.80;99.90;;;;;;10334700;28;84271;-52
2021/12/05 21:20:16;;;;;;;;;;;5.80;99.90;;;;;;10346915;28;84540;-53
2021/12/05 21:25:17;;;;;;;;;;;5.80;99.90;;;;;;10345778;28;84116;-52
2021/12/05 21:30:19;;;;;;;;;;;5.70;99.90;;;;;;10345767;28;84831;-51
2021/12/05 21:35:20;;;;;;;;;;;5.70;99.90;;;;;;10350655;28;85345;-50
2021/12/05 21:40:24;;;;;;;;;;;5.70;99.90;;;;;;10347826;28;85126;-55
2021/12/05 21:45:25;;;;;;;;;;;5.80;99.90;;;;;;10335101;28;84901;-50
2021/12/05 21:50:26;;;;;;;;;;;5.70;99.90;;;;;;10352128;28;85150;-54
2021/12/05 21:55:27;;;;;;;;;;;5.70;99.90;;;;;;10347276;28;84862;-51
2021/12/05 22:00:29;;;;;;;;;;;5.80;99.90;;;;;;10345134;28;84880;-51
2021/12/05 22:05:31;;;;;;;;;;;5.70;99.90;;;;;;10349520;28;85075;-51
2021/12/05 22:10:31;;;;;;;;;;;5.70;99.90;;;;;;10352395;28;84981;-51
2021/12/05 22:15:34;;;;;;;;;;;5.70;99.90;;;;;;10364766;22;85949;-50
2021/12/05 22:20:40;;;;;;;;;;;5.70;99.90;;;;;;10350745;28;84118;-48
2021/12/05 22:25:41;;;;;;;;;;;5.70;99.90;;;;;;10350877;28;84877;-52
2021/12/05 22:30:42;;;;;;;;;;;5.70;99.90;;;;;;10334755;28;84575;-52
2021/12/05 22:35:43;;;;;;;;;;;5.60;99.90;;;;;;10333520;28;84769;-51
2021/12/05 22:40:43;;;;;;;;;;;5.60;99.90;;;;;;10350144;28;84463;-50
2021/12/05 22:45:44;;;;;;;;;;;5.60;99.90;;;;;;10331390;28;84239;-52
2021/12/05 22:50:45;;;;;;;;;;;5.60;99.90;;;;;;10323430;28;86882;-50
2021/12/05 22:55:46;;;;;;;;;;;5.60;99.90;;;;;;10332446;28;84755;-50
2021/12/05 23:00:55;;;;;;;;;;;5.50;99.90;;;;;;10332391;28;84327;-49
2021/12/05 23:05:56;;;;;;;;;;;5.50;99.90;;;;;;10313940;28;84027;-50
2021/12/05 23:10:57;;;;;;;;;;;5.40;99.90;;;;;;10333980;28;85190;-51
2021/12/05 23:15:58;;;;;;;;;;;5.40;99.90;;;;;;10331570;28;84951;-50
2021/12/05 23:20:59;;;;;;;;;;;5.40;99.90;;;;;;10334158;28;84855;-47
2021/12/05 23:26:00;;;;;;;;;;;5.40;99.90;;;;;;10332639;28;84954;-49
2021/12/05 23:31:01;;;;;;;;;;;5.40;99.90;;;;;;10332353;28;85402;-49
2021/12/05 23:36:02;;;;;;;;;;;5.30;99.90;;;;;;10330692;28;85910;-48
2021/12/05 23:41:03;;;;;;;;;;;5.40;99.90;;;;;;10346859;28;85760;-48
2021/12/05 23:46:03;;;;;;;;;;;5.30;99.90;;;;;;10331443;28;84857;-51
2021/12/05 23:51:05;;;;;;;;;;;5.30;99.90;;;;;;10332607;28;84733;-51
2021/12/05 23:56:06;;;;;;;;;;;5.20;99.90;;;;;;10312560;28;87134;-52
